Terminal Aerodrome Forecast
Issued by NWS Corpus Christi, TX

Home | Current Version | Previous Version | Text Only | Print | Product List | Glossary On
Versions: 1 2 3 4 5 6 7 8 9 10 11 12
000
FTUS44 KCRP 212331
TAFCRP
TAF
KCRP 212331Z 2200/2224 14013G20KT P6SM FEW030 SCT250
     FM220200 16007KT P6SM FEW020 SCT250
     FM221600 17012G18KT P6SM SCT035
     FM221900 15018G25KT P6SM FEW040 SCT250=

USA.gov is the U.S. government's official web portal to all federal, state and local government web resources and services.